createdAt,value
2022-10-22T00:01:47.050Z,10.90
2022-10-22T00:04:50.928Z,14.10
2022-10-22T00:07:58.549Z,13.55
2022-10-22T00:11:20.758Z,12.68
2022-10-22T00:14:42.977Z,12.23
2022-10-22T00:17:59.027Z,12.50
2022-10-22T00:21:18.911Z,11.97
2022-10-22T00:24:47.645Z,13.10
2022-10-22T00:27:57.662Z,12.95
2022-10-22T00:31:19.852Z,10.50
2022-10-22T00:34:41.655Z,15.37
2022-10-22T00:38:04.874Z,12.10
2022-10-22T00:41:21.449Z,13.88
2022-10-22T00:45:07.942Z,13.23
2022-10-22T00:48:24.777Z,12.55
2022-10-22T00:51:48.836Z,12.47
2022-10-22T00:55:15.798Z,12.40
2022-10-22T00:58:33.835Z,11.55
2022-10-22T01:01:50.226Z,13.27
2022-10-22T01:04:59.650Z,13.45
2022-10-22T01:08:34.828Z,12.90
2022-10-22T01:12:16.001Z,12.97
2022-10-22T01:15:35.982Z,10.20
2022-10-22T01:18:55.887Z,10.45
2022-10-22T01:22:15.014Z,10.95
2022-10-22T01:25:37.917Z,10.57
2022-10-22T01:29:04.802Z,11.50
2022-10-22T01:32:25.999Z,9.98
2022-10-22T01:35:43.870Z,13.18
2022-10-22T01:39:05.775Z,13.63
2022-10-22T01:42:26.789Z,12.43
2022-10-22T01:45:48.999Z,13.83
2022-10-22T01:49:26.000Z,11.80
2022-10-22T01:53:30.533Z,11.68
2022-10-22T01:57:03.538Z,10.30
2022-10-22T02:00:14.365Z,13.03
2022-10-22T02:03:43.664Z,12.87
2022-10-22T02:06:50.454Z,11.15
2022-10-22T02:10:15.315Z,12.75
2022-10-22T02:13:38.659Z,13.52
2022-10-22T02:17:01.342Z,11.43
2022-10-22T02:20:29.417Z,12.83
2022-10-22T02:23:51.428Z,11.27
2022-10-22T02:27:16.574Z,13.30
2022-10-22T02:30:21.766Z,11.57
2022-10-22T02:33:37.341Z,11.47
2022-10-22T02:37:01.652Z,13.73
2022-10-22T02:40:37.332Z,20.45
2022-10-22T02:44:11.774Z,10.82
2022-10-22T02:47:25.579Z,11.38
2022-10-22T02:50:46.368Z,12.47
2022-10-22T02:54:01.875Z,10.00
2022-10-22T02:57:17.836Z,13.75
2022-10-22T03:00:44.686Z,12.32
2022-10-22T03:04:01.225Z,12.88
2022-10-22T03:07:23.523Z,11.60
2022-10-22T03:10:59.559Z,13.90
2022-10-22T03:14:21.484Z,12.02
2022-10-22T03:17:37.638Z,10.60
2022-10-22T03:21:00.461Z,11.85
2022-10-22T03:24:43.931Z,12.87
2022-10-22T03:27:54.588Z,12.57
2022-10-22T03:31:15.406Z,12.38
2022-10-22T03:34:36.404Z,12.20
2022-10-22T03:37:58.941Z,12.68
2022-10-22T03:41:22.550Z,10.73
2022-10-22T03:44:44.448Z,11.57
2022-10-22T03:48:00.519Z,12.45
2022-10-22T03:51:21.416Z,13.02
2022-10-22T03:54:51.398Z,11.25
2022-10-22T03:58:15.431Z,12.37
2022-10-22T04:01:37.521Z,13.63
2022-10-22T04:04:58.427Z,14.23
2022-10-22T04:08:18.518Z,15.48
2022-10-22T04:11:41.546Z,16.10
2022-10-22T04:15:05.341Z,15.70
2022-10-22T04:18:24.507Z,19.27
2022-10-22T04:21:45.522Z,15.82
2022-10-22T04:25:05.453Z,21.15
2022-10-22T04:28:25.540Z,18.63
2022-10-22T04:31:45.391Z,15.43
2022-10-22T04:35:05.388Z,16.60
2022-10-22T04:38:15.366Z,17.13
2022-10-22T04:41:20.659Z,18.65
2022-10-22T04:44:30.169Z,18.52
2022-10-22T04:47:53.301Z,16.50
2022-10-22T04:51:16.082Z,20.30
2022-10-22T04:54:38.235Z,22.60
2022-10-22T04:58:03.047Z,15.02
2022-10-22T05:01:23.192Z,18.23
2022-10-22T05:04:46.159Z,19.00
2022-10-22T05:08:08.014Z,17.17
2022-10-22T05:11:28.329Z,16.50
2022-10-22T05:14:32.056Z,19.88
2022-10-22T05:17:37.745Z,24.48
2022-10-22T05:20:42.820Z,16.60
2022-10-22T05:23:47.334Z,17.00
2022-10-22T05:26:57.530Z,17.95
2022-10-22T05:30:00.294Z,16.00
2022-10-22T05:33:24.132Z,17.30
2022-10-22T05:36:37.996Z,15.33
2022-10-22T05:40:01.845Z,16.23
2022-10-22T05:43:34.104Z,17.63
2022-10-22T05:46:57.118Z,17.90
2022-10-22T05:50:08.058Z,18.42
2022-10-22T05:53:18.980Z,19.83
2022-10-22T05:56:23.566Z,19.10
2022-10-22T05:59:39.354Z,18.50
2022-10-22T06:02:57.088Z,17.13
2022-10-22T06:06:30.835Z,15.13
2022-10-22T06:09:48.749Z,18.50
2022-10-22T06:13:03.264Z,19.40
2022-10-22T06:16:19.250Z,16.60
2022-10-22T06:19:49.132Z,16.23
2022-10-22T06:23:05.052Z,22.00
2022-10-22T06:26:42.023Z,23.63
2022-10-22T06:30:04.071Z,18.60
2022-10-22T06:33:06.827Z,21.30
2022-10-22T06:36:15.735Z,18.67
2022-10-22T06:39:22.897Z,18.52
2022-10-22T06:42:36.088Z,17.37
2022-10-22T06:45:56.151Z,20.53
2022-10-22T06:49:18.200Z,17.30
2022-10-22T06:52:34.720Z,19.08
2022-10-22T06:55:56.363Z,14.63
2022-10-22T06:59:20.107Z,19.07
2022-10-22T07:02:41.458Z,18.20
2022-10-22T07:05:58.003Z,16.00
2022-10-22T07:12:46.041Z,16.20
2022-10-22T07:16:02.018Z,32.53
2022-10-22T07:19:09.291Z,16.07
2022-10-22T07:22:13.449Z,15.93
2022-10-22T07:25:28.947Z,16.85
2022-10-22T07:28:56.857Z,14.60
2022-10-22T07:32:24.022Z,15.63
2022-10-22T07:35:26.884Z,18.93
2022-10-22T07:38:31.687Z,18.40
2022-10-22T07:41:34.629Z,16.45
2022-10-22T07:44:37.707Z,16.42
2022-10-22T07:47:43.350Z,17.97
2022-10-22T07:50:53.781Z,17.17
2022-10-22T07:54:15.683Z,20.13
2022-10-22T07:57:38.877Z,19.30
2022-10-22T08:01:01.038Z,16.60
2022-10-22T08:04:11.553Z,15.53
2022-10-22T08:11:01.803Z,14.13
2022-10-22T08:14:16.764Z,14.88
2022-10-22T08:17:40.322Z,16.88
2022-10-22T08:21:07.850Z,16.67
2022-10-22T08:24:30.809Z,16.57
2022-10-22T08:27:59.768Z,16.23
2022-10-22T08:31:23.009Z,16.30
2022-10-22T08:34:43.864Z,14.43
2022-10-22T08:38:06.877Z,18.83
2022-10-22T08:41:37.032Z,17.13
2022-10-22T08:45:04.246Z,15.93
2022-10-22T08:48:43.707Z,13.70
2022-10-22T08:51:48.048Z,15.73
2022-10-22T08:55:01.046Z,15.67
2022-10-22T08:58:31.222Z,15.60
2022-10-22T09:01:38.905Z,18.40
2022-10-22T09:05:00.930Z,15.82
2022-10-22T09:08:12.861Z,17.85
2022-10-22T09:11:35.690Z,17.10
2022-10-22T09:15:04.914Z,18.40
2022-10-22T09:18:50.561Z,18.35
2022-10-22T09:22:14.884Z,16.77
2022-10-22T09:25:27.443Z,16.58
2022-10-22T09:28:34.177Z,16.80
2022-10-22T09:31:46.864Z,16.83
2022-10-22T09:34:55.474Z,17.48
2022-10-22T09:38:08.214Z,22.10
2022-10-22T09:41:24.545Z,17.50
2022-10-22T09:44:47.849Z,19.03
2022-10-22T09:48:13.534Z,21.00
2022-10-22T09:51:40.403Z,21.27
2022-10-22T09:54:53.647Z,16.40
2022-10-22T09:58:14.375Z,24.50
2022-10-22T10:01:38.470Z,15.50
2022-10-22T10:04:57.369Z,20.03
2022-10-22T10:08:15.339Z,18.05
2022-10-22T10:11:54.652Z,17.48
2022-10-22T10:15:15.116Z,19.92
2022-10-22T10:18:28.722Z,17.73
2022-10-22T10:22:00.734Z,19.43
2022-10-22T10:25:21.429Z,17.42
2022-10-22T10:28:48.959Z,19.33
2022-10-22T10:31:57.714Z,21.98
2022-10-22T10:35:19.496Z,23.23
2022-10-22T10:38:41.500Z,21.17
2022-10-22T10:42:05.032Z,20.80
2022-10-22T10:45:38.341Z,23.33
2022-10-22T10:48:48.637Z,20.33
2022-10-22T10:52:10.615Z,17.77
2022-10-22T10:55:33.455Z,21.03
2022-10-22T10:58:57.663Z,22.42
2022-10-22T11:02:28.627Z,24.02
2022-10-22T11:05:39.418Z,20.05
2022-10-22T11:09:02.593Z,20.33
2022-10-22T11:12:16.572Z,18.40
2022-10-22T11:15:40.746Z,20.38
2022-10-22T11:19:22.738Z,20.38
2022-10-22T11:22:44.385Z,23.02
2022-10-22T11:25:56.793Z,18.63
2022-10-22T11:29:16.546Z,22.23
2022-10-22T11:32:31.557Z,25.67
2022-10-22T11:35:44.725Z,21.20
2022-10-22T11:38:48.722Z,24.55
2022-10-22T11:42:06.066Z,22.27
2022-10-22T11:45:20.545Z,23.43
2022-10-22T11:48:37.879Z,19.63
2022-10-22T11:51:54.276Z,20.92
2022-10-22T11:55:37.077Z,24.40
2022-10-22T11:58:52.232Z,33.67
2022-10-22T12:02:40.511Z,22.73
2022-10-22T12:05:46.173Z,25.45
2022-10-22T12:08:54.684Z,22.73
2022-10-22T12:12:15.485Z,23.92
2022-10-22T12:15:27.912Z,25.80
2022-10-22T12:18:56.301Z,23.60
2022-10-22T12:22:27.077Z,23.52
2022-10-22T12:25:48.168Z,25.33
2022-10-22T12:29:09.246Z,24.80
2022-10-22T12:32:15.293Z,24.47
2022-10-22T12:35:42.161Z,23.37
2022-10-22T12:39:17.055Z,25.63
2022-10-22T12:42:38.251Z,22.75
2022-10-22T12:45:45.023Z,24.60
2022-10-22T12:49:01.271Z,22.53
2022-10-22T12:52:14.048Z,22.97
2022-10-22T12:55:28.030Z,24.95
2022-10-22T12:58:41.735Z,27.67
2022-10-22T13:01:59.395Z,21.30
2022-10-22T13:05:17.748Z,21.90
2022-10-22T13:08:41.168Z,22.20
2022-10-22T13:12:10.062Z,23.25
2022-10-22T13:15:40.870Z,27.83
2022-10-22T13:18:52.570Z,22.73
2022-10-22T13:22:16.240Z,23.97
2022-10-22T13:25:39.677Z,26.60
2022-10-22T13:28:54.763Z,22.50
2022-10-22T13:32:11.185Z,24.60
2022-10-22T13:35:49.596Z,24.52
2022-10-22T13:39:11.604Z,24.93
2022-10-22T13:42:32.612Z,22.73
2022-10-22T13:45:54.751Z,28.48
2022-10-22T13:49:16.578Z,23.83
2022-10-22T13:52:35.857Z,26.98
2022-10-22T13:55:52.483Z,29.90
2022-10-22T13:59:18.536Z,31.77
2022-10-22T14:02:30.540Z,25.67
2022-10-22T14:05:53.197Z,24.20
2022-10-22T14:09:02.401Z,27.95
2022-10-22T14:12:17.670Z,27.20
2022-10-22T14:15:31.055Z,28.07
2022-10-22T14:18:37.398Z,20.85
2022-10-22T14:21:41.341Z,25.98
2022-10-22T14:24:47.391Z,23.80
2022-10-22T14:27:56.687Z,27.30
2022-10-22T14:31:19.855Z,22.97
2022-10-22T14:34:51.855Z,24.35
2022-10-22T14:38:01.783Z,25.45
2022-10-22T14:41:15.993Z,29.10
2022-10-22T14:44:25.593Z,23.87
2022-10-22T14:47:28.763Z,26.00
2022-10-22T14:50:35.636Z,30.33
2022-10-22T14:53:41.301Z,23.58
2022-10-22T14:56:50.257Z,21.00
2022-10-22T15:00:05.982Z,22.10
2022-10-22T15:03:26.790Z,19.63
2022-10-22T15:06:50.988Z,19.17
2022-10-22T15:10:13.859Z,21.17
2022-10-22T15:13:37.852Z,18.50
2022-10-22T15:17:01.974Z,20.23
2022-10-22T15:20:21.961Z,17.77
2022-10-22T15:23:25.830Z,18.95
2022-10-22T15:26:33.729Z,16.75
2022-10-22T15:29:38.809Z,19.13
2022-10-22T15:32:55.147Z,19.53
2022-10-22T15:36:16.494Z,21.53
2022-10-22T15:39:40.839Z,19.17
2022-10-22T15:42:44.251Z,19.67
2022-10-22T15:46:08.218Z,18.20
2022-10-22T15:49:13.187Z,20.23
2022-10-22T15:52:26.440Z,23.80
2022-10-22T15:55:39.849Z,19.38
2022-10-22T15:58:53.897Z,20.17
2022-10-22T16:01:58.049Z,25.38
2022-10-22T16:05:02.947Z,23.70
2022-10-22T16:08:25.341Z,23.30
2022-10-22T16:11:48.864Z,21.73
2022-10-22T16:15:10.289Z,27.02
2022-10-22T16:18:26.726Z,25.35
2022-10-22T16:21:47.658Z,27.73
2022-10-22T16:25:17.648Z,27.63
2022-10-22T16:28:43.376Z,29.30
2022-10-22T16:32:05.368Z,29.27
2022-10-22T16:35:15.887Z,32.00
2022-10-22T16:38:34.816Z,29.13
2022-10-22T16:41:44.211Z,27.17
2022-10-22T16:44:48.302Z,28.70
2022-10-22T16:48:06.019Z,26.67
2022-10-22T16:51:17.405Z,28.60
2022-10-22T16:54:27.657Z,28.43
2022-10-22T16:57:32.049Z,25.53
2022-10-22T17:00:45.867Z,25.80
2022-10-22T17:04:04.708Z,30.80
2022-10-22T17:07:14.339Z,27.35
2022-10-22T17:10:37.527Z,26.03
2022-10-22T17:14:11.410Z,28.53
2022-10-22T17:17:33.796Z,30.20
2022-10-22T17:20:58.073Z,32.20
2022-10-22T17:24:17.637Z,28.75
2022-10-22T17:27:26.163Z,30.20
2022-10-22T17:30:49.479Z,31.43
2022-10-22T17:34:25.547Z,32.67
2022-10-22T17:37:39.436Z,30.85
2022-10-22T17:41:06.966Z,30.50
2022-10-22T17:44:34.758Z,34.50
2022-10-22T17:47:57.561Z,30.27
2022-10-22T17:51:15.603Z,33.83
2022-10-22T17:54:36.549Z,31.92
2022-10-22T17:57:39.932Z,31.58
2022-10-22T18:00:47.673Z,32.33
2022-10-22T18:04:30.536Z,30.57
2022-10-22T18:08:04.397Z,30.52
2022-10-22T18:11:28.631Z,35.03
2022-10-22T18:14:50.419Z,35.20
2022-10-22T18:18:10.543Z,33.27
2022-10-22T18:21:26.660Z,31.33
2022-10-22T18:24:29.827Z,32.65
2022-10-22T18:27:34.760Z,27.20
2022-10-22T18:30:57.132Z,31.20
2022-10-22T18:34:07.567Z,30.70
2022-10-22T18:37:29.862Z,30.90
2022-10-22T18:40:59.526Z,29.33
2022-10-22T18:44:25.100Z,30.35
2022-10-22T18:47:48.273Z,32.60
2022-10-22T18:51:13.153Z,28.27
2022-10-22T18:54:24.158Z,28.67
2022-10-22T18:57:41.986Z,28.35
2022-10-22T19:01:05.395Z,33.72
2022-10-22T19:04:41.137Z,32.03
2022-10-22T19:07:44.472Z,32.80
2022-10-22T19:10:51.834Z,31.03
2022-10-22T19:13:58.260Z,29.90
2022-10-22T19:17:22.285Z,33.78
2022-10-22T19:20:38.657Z,33.05
2022-10-22T19:24:10.180Z,33.40
2022-10-22T19:27:40.405Z,34.33
2022-10-22T19:30:50.797Z,32.92
2022-10-22T19:33:57.525Z,35.38
2022-10-22T19:37:04.856Z,33.78
2022-10-22T19:40:09.386Z,32.20
2022-10-22T19:43:14.395Z,32.83
2022-10-22T19:46:22.298Z,31.20
2022-10-22T19:49:43.336Z,35.22
2022-10-22T19:53:10.223Z,33.92
2022-10-22T19:56:49.266Z,35.17
2022-10-22T20:00:07.202Z,35.27
2022-10-22T20:03:36.398Z,35.78
2022-10-22T20:07:02.898Z,33.78
2022-10-22T20:10:22.409Z,37.28
2022-10-22T20:13:48.285Z,35.90
2022-10-22T20:17:11.229Z,36.97
2022-10-22T20:20:26.425Z,37.35
2022-10-22T20:23:51.358Z,37.42
2022-10-22T20:27:05.560Z,39.22
2022-10-22T20:30:29.306Z,36.23
2022-10-22T20:33:51.379Z,34.70
2022-10-22T20:37:15.202Z,38.55
2022-10-22T20:40:41.251Z,37.85
2022-10-22T20:44:03.273Z,36.53
2022-10-22T20:47:19.277Z,37.40
2022-10-22T20:50:25.215Z,36.50
2022-10-22T20:53:28.752Z,38.92
2022-10-22T20:56:32.706Z,37.20
2022-10-22T20:59:43.630Z,40.58
2022-10-22T21:02:48.411Z,44.47
2022-10-22T21:06:04.381Z,37.47
2022-10-22T21:09:15.367Z,35.25
2022-10-22T21:12:28.174Z,36.55
2022-10-22T21:15:35.373Z,36.75
2022-10-22T21:18:42.950Z,38.97
2022-10-22T21:22:04.808Z,38.10
2022-10-22T21:25:27.979Z,34.85
2022-10-22T21:28:46.923Z,36.60
2022-10-22T21:32:10.189Z,36.65
2022-10-22T21:35:31.906Z,36.73
2022-10-22T21:38:47.974Z,34.27
2022-10-22T21:42:01.836Z,34.35
2022-10-22T21:45:31.837Z,32.92
2022-10-22T21:48:59.858Z,33.25
2022-10-22T21:52:20.210Z,30.77
2022-10-22T21:55:45.913Z,36.27
2022-10-22T21:59:07.825Z,35.55
2022-10-22T22:02:28.911Z,36.75
2022-10-22T22:05:52.171Z,40.33
2022-10-22T22:09:11.912Z,37.70
2022-10-22T22:12:34.874Z,44.03
2022-10-22T22:15:55.851Z,41.75
2022-10-22T22:19:08.986Z,39.53
2022-10-22T22:22:32.025Z,41.88
2022-10-22T22:26:04.010Z,39.80
2022-10-22T22:29:21.947Z,42.13
2022-10-22T22:32:37.847Z,45.22
2022-10-22T22:36:07.913Z,44.03
2022-10-22T22:39:26.961Z,45.58
2022-10-22T22:42:50.929Z,47.70
2022-10-22T22:46:16.390Z,46.77
2022-10-22T22:49:43.983Z,47.03
2022-10-22T22:53:06.984Z,43.65
2022-10-22T22:56:32.664Z,44.42
2022-10-22T22:59:47.099Z,41.73
2022-10-22T23:02:55.526Z,47.57
2022-10-22T23:06:19.825Z,43.92
2022-10-22T23:09:39.835Z,46.28
2022-10-22T23:12:55.790Z,47.08
2022-10-22T23:16:13.731Z,46.93
2022-10-22T23:19:23.167Z,44.37
2022-10-22T23:22:37.581Z,45.45
2022-10-22T23:25:40.853Z,46.03
2022-10-22T23:29:04.598Z,49.13
2022-10-22T23:32:40.564Z,46.70
2022-10-22T23:36:03.594Z,46.80
2022-10-22T23:39:29.541Z,48.97
2022-10-22T23:42:53.699Z,50.22
2022-10-22T23:46:12.842Z,48.17
2022-10-22T23:49:35.511Z,44.57
2022-10-22T23:52:52.030Z,47.53
2022-10-22T23:56:15.518Z,45.83
2022-10-22T23:59:27.628Z,45.45
